Time;durP1;ratioP1;P1;durP2;ratioP2;P2;SDS_P1;SDS_P2;PMS_P1;PMS_P2;Temp;Humidity;BMP_temperature;BMP_pressure;BME280_temperature;BME280_humidity;BME280_pressure;Samples;Min_cycle;Max_cycle;Signal;HPM_P1;HPM_P2
2022/07/08 00:02:23;;;;;;;;;;;15.30;99.90;;;;;;5068242;28;19925;-67
2022/07/08 00:04:49;;;;;;;;;;;15.40;99.90;;;;;;5068521;28;19924;-67
2022/07/08 00:07:18;;;;;;;;;;;15.40;99.90;;;;;;5068469;28;19932;-67
2022/07/08 00:09:44;;;;;;;;;;;15.40;99.90;;;;;;5067844;28;19925;-67
2022/07/08 00:12:11;;;;;;;;;;;15.40;99.90;;;;;;5068206;28;19982;-67
2022/07/08 00:14:38;;;;;;;;;;;15.40;99.90;;;;;;5068365;28;19925;-68
2022/07/08 00:17:05;;;;;;;;;;;15.40;99.90;;;;;;5068281;28;20343;-67
2022/07/08 00:19:31;;;;;;;;;;;15.40;99.90;;;;;;5068118;28;20034;-67
2022/07/08 00:21:58;;;;;;;;;;;15.30;99.90;;;;;;5034851;28;19925;-67
2022/07/08 00:24:26;;;;;;;;;;;15.40;99.90;;;;;;5067991;28;19991;-67
2022/07/08 00:26:53;;;;;;;;;;;15.40;99.90;;;;;;5067378;28;19932;-67
2022/07/08 00:29:20;;;;;;;;;;;15.30;99.90;;;;;;5067757;28;19924;-67
2022/07/08 00:31:47;;;;;;;;;;;15.30;99.90;;;;;;5067711;28;20392;-67
2022/07/08 00:34:13;;;;;;;;;;;15.30;99.90;;;;;;5034772;28;19925;-67
2022/07/08 00:36:40;;;;;;;;;;;15.30;99.90;;;;;;5068100;28;19932;-67
2022/07/08 00:39:07;;;;;;;;;;;15.30;99.90;;;;;;5067549;28;19925;-67
2022/07/08 00:41:35;;;;;;;;;;;15.30;99.90;;;;;;5034851;28;20392;-65
2022/07/08 00:44:02;;;;;;;;;;;15.30;99.90;;;;;;5067932;28;19929;-67
2022/07/08 00:46:29;;;;;;;;;;;15.30;99.90;;;;;;5067223;28;20350;-68
2022/07/08 00:48:56;;;;;;;;;;;15.20;99.90;;;;;;5034256;28;20400;-67
2022/07/08 00:51:23;;;;;;;;;;;15.30;99.90;;;;;;5067697;28;19925;-67
2022/07/08 00:53:51;;;;;;;;;;;15.20;99.90;;;;;;5034337;28;19932;-68
2022/07/08 00:56:19;;;;;;;;;;;15.20;99.90;;;;;;5067498;28;20031;-67
2022/07/08 00:58:48;;;;;;;;;;;15.20;99.90;;;;;;5067653;28;19936;-66
2022/07/08 01:01:15;;;;;;;;;;;15.20;99.90;;;;;;5067680;28;19925;-67
2022/07/08 01:03:42;;;;;;;;;;;15.20;99.90;;;;;;5034246;28;19931;-67
2022/07/08 01:06:09;;;;;;;;;;;15.20;99.90;;;;;;5067385;28;20277;-67
2022/07/08 01:08:36;;;;;;;;;;;15.20;99.90;;;;;;5067578;28;19929;-66
2022/07/08 01:11:02;;;;;;;;;;;15.20;99.90;;;;;;5067411;28;19928;-66
2022/07/08 01:13:29;;;;;;;;;;;15.20;99.90;;;;;;5067478;28;19979;-66
2022/07/08 01:15:57;;;;;;;;;;;15.20;99.90;;;;;;5067461;28;20359;-67
2022/07/08 01:18:26;;;;;;;;;;;15.20;99.90;;;;;;5067397;28;19924;-67
2022/07/08 01:20:55;;;;;;;;;;;15.10;99.90;;;;;;5067156;28;19991;-67
2022/07/08 01:23:22;;;;;;;;;;;15.10;99.90;;;;;;5067689;28;20412;-66
2022/07/08 01:25:48;;;;;;;;;;;15.10;99.90;;;;;;5067286;28;19932;-66
2022/07/08 01:28:16;;;;;;;;;;;15.10;99.90;;;;;;5067329;28;19925;-68
2022/07/08 01:30:43;;;;;;;;;;;15.10;99.90;;;;;;5066924;28;19929;-67
2022/07/08 01:33:10;;;;;;;;;;;15.10;99.90;;;;;;5067579;28;19971;-67
2022/07/08 01:35:37;;;;;;;;;;;15.10;99.90;;;;;;5067398;28;19933;-67
2022/07/08 01:38:05;;;;;;;;;;;15.10;99.90;;;;;;5069659;28;19928;-68
2022/07/08 01:40:31;;;;;;;;;;;15.10;99.90;;;;;;5037814;28;19925;-68
2022/07/08 01:42:58;;;;;;;;;;;15.10;99.90;;;;;;5071004;28;20315;-66
2022/07/08 01:45:25;;;;;;;;;;;15.10;99.90;;;;;;5070997;28;20335;-67
2022/07/08 01:47:52;;;;;;;;;;;15.10;99.90;;;;;;5070925;28;20346;-68
2022/07/08 01:50:19;;;;;;;;;;;15.10;99.90;;;;;;5070783;28;20355;-67
2022/07/08 01:52:45;;;;;;;;;;;15.10;99.90;;;;;;5070327;28;19979;-67
2022/07/08 01:55:14;;;;;;;;;;;15.00;99.90;;;;;;5070804;28;19928;-67
2022/07/08 01:57:40;;;;;;;;;;;15.00;99.90;;;;;;5038589;28;19924;-67
2022/07/08 02:00:08;;;;;;;;;;;15.10;99.90;;;;;;5070379;28;19929;-67
2022/07/08 02:02:38;;;;;;;;;;;15.00;99.90;;;;;;5070570;28;20046;-66
2022/07/08 02:05:05;;;;;;;;;;;15.00;99.90;;;;;;5070654;28;19925;-67
2022/07/08 02:07:33;;;;;;;;;;;15.00;99.90;;;;;;5070266;28;19925;-67
2022/07/08 02:10:00;;;;;;;;;;;14.90;99.90;;;;;;5036904;28;19925;-66
2022/07/08 02:12:27;;;;;;;;;;;14.90;99.90;;;;;;5070312;28;19978;-68
2022/07/08 02:14:55;;;;;;;;;;;15.00;99.90;;;;;;5070696;28;19929;-66
2022/07/08 02:17:22;;;;;;;;;;;14.90;99.90;;;;;;5070272;28;19929;-66
2022/07/08 02:19:49;;;;;;;;;;;14.90;99.90;;;;;;5070222;28;19970;-66
2022/07/08 02:22:16;;;;;;;;;;;15.00;99.90;;;;;;5070505;28;19932;-66
2022/07/08 02:24:43;;;;;;;;;;;15.00;99.90;;;;;;5070269;28;20370;-67
2022/07/08 02:27:10;;;;;;;;;;;14.90;99.90;;;;;;5070390;28;19932;-66
2022/07/08 02:29:38;;;;;;;;;;;14.90;99.90;;;;;;5036759;28;19924;-67
2022/07/08 02:32:05;;;;;;;;;;;14.90;99.90;;;;;;5070287;28;19925;-66
2022/07/08 02:34:32;;;;;;;;;;;14.90;99.90;;;;;;5070287;28;19924;-66
2022/07/08 02:36:59;;;;;;;;;;;14.90;99.90;;;;;;5069910;28;19928;-66
2022/07/08 02:39:25;;;;;;;;;;;14.80;99.90;;;;;;5069867;28;19925;-66
2022/07/08 02:41:52;;;;;;;;;;;14.90;99.90;;;;;;5070330;28;19925;-66
2022/07/08 02:44:19;;;;;;;;;;;14.90;99.90;;;;;;5070131;28;19925;-67
2022/07/08 02:46:48;;;;;;;;;;;14.80;99.90;;;;;;5036546;28;20027;-66
2022/07/08 02:49:15;;;;;;;;;;;14.80;99.90;;;;;;5069153;28;19924;-66
2022/07/08 02:51:41;;;;;;;;;;;14.80;99.90;;;;;;5069634;28;20330;-66
2022/07/08 02:54:08;;;;;;;;;;;14.80;99.90;;;;;;5069787;28;20012;-66
2022/07/08 02:56:36;;;;;;;;;;;14.80;99.90;;;;;;5036322;28;19975;-68
2022/07/08 02:59:03;;;;;;;;;;;14.70;99.90;;;;;;5069527;28;19931;-67
2022/07/08 03:01:30;;;;;;;;;;;14.70;99.90;;;;;;5069813;28;19929;-66
2022/07/08 03:03:59;;;;;;;;;;;14.60;99.90;;;;;;5069538;28;19929;-66
2022/07/08 03:06:26;;;;;;;;;;;14.60;99.90;;;;;;5069422;28;19929;-67
2022/07/08 03:08:52;;;;;;;;;;;14.60;99.90;;;;;;5069309;28;19929;-66
2022/07/08 03:11:19;;;;;;;;;;;14.60;99.90;;;;;;5069433;28;19925;-67
2022/07/08 03:13:46;;;;;;;;;;;14.50;99.90;;;;;;5069334;28;20360;-68
2022/07/08 03:16:13;;;;;;;;;;;14.60;99.90;;;;;;5035837;28;19932;-66
2022/07/08 03:18:39;;;;;;;;;;;14.50;99.90;;;;;;5069473;28;20327;-67
2022/07/08 03:21:08;;;;;;;;;;;14.50;99.90;;;;;;5069147;28;19982;-67
2022/07/08 03:23:35;;;;;;;;;;;14.50;99.90;;;;;;5036139;28;19924;-67
2022/07/08 03:26:01;;;;;;;;;;;14.50;99.90;;;;;;5069198;28;19933;-67
2022/07/08 03:28:28;;;;;;;;;;;14.40;99.90;;;;;;5069065;28;19928;-66
2022/07/08 03:30:55;;;;;;;;;;;14.40;99.90;;;;;;5068652;28;20392;-66
2022/07/08 03:33:22;;;;;;;;;;;14.40;99.90;;;;;;5069177;28;19924;-66
2022/07/08 03:35:49;;;;;;;;;;;14.20;99.90;;;;;;5068942;28;19984;-66
2022/07/08 03:38:17;;;;;;;;;;;14.20;99.90;;;;;;5068959;28;19928;-67
2022/07/08 03:43:28;;;;;;;;;;;14.30;99.90;;;;;;5035484;28;19921;-66
2022/07/08 03:45:55;;;;;;;;;;;14.10;99.90;;;;;;5068994;28;19925;-67
2022/07/08 03:48:22;;;;;;;;;;;14.10;99.90;;;;;;5068666;28;19925;-68
2022/07/08 03:50:49;;;;;;;;;;;14.00;99.90;;;;;;5035405;28;19971;-67
2022/07/08 03:53:17;;;;;;;;;;;14.00;99.90;;;;;;5068440;28;19932;-67
2022/07/08 03:55:44;;;;;;;;;;;14.00;99.90;;;;;;5035223;28;20446;-66
2022/07/08 03:58:10;;;;;;;;;;;14.00;99.90;;;;;;5068195;28;19928;-67
2022/07/08 04:00:37;;;;;;;;;;;14.00;99.90;;;;;;5067529;28;20343;-67
2022/07/08 04:03:04;;;;;;;;;;;14.10;99.90;;;;;;5068341;28;19974;-67
2022/07/08 04:05:30;;;;;;;;;;;14.10;99.90;;;;;;5068468;28;19925;-69
2022/07/08 04:07:57;;;;;;;;;;;14.10;99.90;;;;;;5067731;28;19925;-66
2022/07/08 04:10:25;;;;;;;;;;;14.20;99.90;;;;;;5068301;28;19925;-68
2022/07/08 04:12:52;;;;;;;;;;;14.20;99.90;;;;;;5068127;28;19924;-67
2022/07/08 04:15:19;;;;;;;;;;;14.20;99.90;;;;;;5068166;28;19935;-69
2022/07/08 04:17:46;;;;;;;;;;;14.20;99.90;;;;;;5067977;28;19948;-67
2022/07/08 04:20:13;;;;;;;;;;;14.10;99.90;;;;;;5067864;28;19924;-67
2022/07/08 04:22:39;;;;;;;;;;;14.10;99.90;;;;;;5034719;28;19929;-68
2022/07/08 04:25:07;;;;;;;;;;;14.10;99.90;;;;;;5068204;28;19929;-67
2022/07/08 04:27:35;;;;;;;;;;;14.10;99.90;;;;;;5067810;28;19947;-67
2022/07/08 04:30:02;;;;;;;;;;;14.10;99.90;;;;;;5067748;28;19952;-66
2022/07/08 04:32:29;;;;;;;;;;;14.10;99.90;;;;;;5068027;28;19932;-66
2022/07/08 04:34:58;;;;;;;;;;;14.10;99.90;;;;;;5067817;28;20381;-66
2022/07/08 04:37:25;;;;;;;;;;;14.10;99.90;;;;;;5034571;28;19931;-67
2022/07/08 04:39:52;;;;;;;;;;;14.00;99.90;;;;;;5034460;28;19925;-67
2022/07/08 04:42:19;;;;;;;;;;;13.90;99.90;;;;;;5067989;28;19933;-67
2022/07/08 04:44:47;;;;;;;;;;;13.90;99.90;;;;;;5068029;28;20339;-66
2022/07/08 04:47:14;;;;;;;;;;;14.00;99.90;;;;;;5034329;28;19968;-66
2022/07/08 04:49:40;;;;;;;;;;;14.00;99.90;;;;;;5067358;28;19936;-66
2022/07/08 04:52:07;;;;;;;;;;;14.00;99.90;;;;;;5067926;28;19924;-66
2022/07/08 04:54:35;;;;;;;;;;;14.10;99.90;;;;;;5034523;28;20384;-66
2022/07/08 04:57:02;;;;;;;;;;;14.10;99.90;;;;;;5067394;28;20400;-67
2022/07/08 04:59:28;;;;;;;;;;;14.30;99.90;;;;;;5067885;28;19929;-67
2022/07/08 05:01:57;;;;;;;;;;;14.40;99.90;;;;;;5062131;28;19925;-66
2022/07/08 05:04:23;;;;;;;;;;;14.40;99.90;;;;;;5042734;28;20411;-68
2022/07/08 05:06:50;;;;;;;;;;;14.50;99.90;;;;;;5036498;28;19979;-67
2022/07/08 05:09:17;;;;;;;;;;;14.50;99.90;;;;;;5033936;28;19978;-67
2022/07/08 05:11:44;;;;;;;;;;;14.60;99.90;;;;;;5022962;28;19925;-67
2022/07/08 05:14:13;;;;;;;;;;;14.60;99.90;;;;;;5018320;28;19936;-67
2022/07/08 05:16:40;;;;;;;;;;;14.50;99.90;;;;;;5018383;28;19929;-67
2022/07/08 05:19:08;;;;;;;;;;;14.50;99.90;;;;;;5019745;28;19928;-67
2022/07/08 05:21:37;;;;;;;;;;;14.50;99.90;;;;;;5038126;28;19931;-67
2022/07/08 05:24:04;;;;;;;;;;;14.60;99.90;;;;;;5054692;28;19925;-66
2022/07/08 05:26:31;;;;;;;;;;;14.60;99.90;;;;;;5038018;28;19929;-68
2022/07/08 05:28:58;;;;;;;;;;;14.60;99.90;;;;;;5037698;28;19925;-67
2022/07/08 05:31:24;;;;;;;;;;;14.70;99.90;;;;;;5054594;28;19932;-66
2022/07/08 05:33:51;;;;;;;;;;;14.80;99.90;;;;;;5038079;28;19925;-67
2022/07/08 05:36:19;;;;;;;;;;;14.80;99.90;;;;;;5037894;28;20458;-64
2022/07/08 05:38:46;;;;;;;;;;;14.80;99.90;;;;;;5054393;28;19940;-66
2022/07/08 05:41:13;;;;;;;;;;;14.80;99.90;;;;;;5054360;28;20454;-66
2022/07/08 05:43:40;;;;;;;;;;;14.90;99.90;;;;;;5054268;28;19925;-67
2022/07/08 05:46:07;;;;;;;;;;;15.00;99.90;;;;;;5054230;28;19925;-67
2022/07/08 05:48:33;;;;;;;;;;;14.90;99.90;;;;;;5054507;28;19924;-67
2022/07/08 05:51:00;;;;;;;;;;;15.10;99.90;;;;;;5054104;28;19929;-68
2022/07/08 05:53:28;;;;;;;;;;;15.00;99.90;;;;;;5054103;28;19978;-65
2022/07/08 05:55:56;;;;;;;;;;;15.10;99.90;;;;;;5054203;28;20304;-67
2022/07/08 05:58:22;;;;;;;;;;;15.20;99.90;;;;;;5054173;28;19925;-66
2022/07/08 06:00:49;;;;;;;;;;;15.20;99.90;;;;;;5054167;28;19929;-67
2022/07/08 06:03:16;;;;;;;;;;;15.20;99.90;;;;;;5054097;28;19928;-67
2022/07/08 06:05:43;;;;;;;;;;;15.40;99.90;;;;;;5054062;28;19933;-67
2022/07/08 06:08:09;;;;;;;;;;;15.40;99.90;;;;;;5053342;28;20289;-67
2022/07/08 06:10:38;;;;;;;;;;;15.40;99.90;;;;;;5053688;28;19924;-65
2022/07/08 06:13:04;;;;;;;;;;;15.50;99.90;;;;;;5037097;28;20458;-66
2022/07/08 06:15:31;;;;;;;;;;;15.60;99.90;;;;;;5053768;28;20354;-66
2022/07/08 06:17:58;;;;;;;;;;;15.60;99.90;;;;;;5070295;28;19924;-66
2022/07/08 06:20:25;;;;;;;;;;;15.70;99.90;;;;;;5053327;28;20289;-65
2022/07/08 06:22:52;;;;;;;;;;;15.70;99.90;;;;;;5037098;28;19924;-66
2022/07/08 06:25:19;;;;;;;;;;;15.90;99.90;;;;;;5036181;28;19924;-66
2022/07/08 06:27:47;;;;;;;;;;;15.90;99.90;;;;;;5036817;28;20308;-67
2022/07/08 06:30:14;;;;;;;;;;;15.90;99.90;;;;;;5036665;28;19925;-67
2022/07/08 06:32:40;;;;;;;;;;;16.00;99.90;;;;;;5053518;28;20470;-67
2022/07/08 06:35:07;;;;;;;;;;;15.90;99.90;;;;;;5036553;28;19952;-67
2022/07/08 06:37:34;;;;;;;;;;;16.00;99.90;;;;;;5036610;28;19979;-66
2022/07/08 06:40:01;;;;;;;;;;;16.10;99.90;;;;;;5036615;28;19928;-67
2022/07/08 06:42:28;;;;;;;;;;;16.10;99.90;;;;;;5053292;28;19925;-67
2022/07/08 06:44:58;;;;;;;;;;;16.10;99.90;;;;;;5053243;28;19925;-65
2022/07/08 06:47:25;;;;;;;;;;;16.30;99.90;;;;;;5036446;28;19925;-67
2022/07/08 06:49:52;;;;;;;;;;;16.30;99.90;;;;;;5052944;28;20019;-67
2022/07/08 06:52:19;;;;;;;;;;;16.40;99.90;;;;;;5052837;28;19925;-64
2022/07/08 06:54:46;;;;;;;;;;;16.40;99.90;;;;;;5036381;28;19925;-67
2022/07/08 06:57:13;;;;;;;;;;;16.40;99.90;;;;;;5036003;28;19924;-66
2022/07/08 06:59:40;;;;;;;;;;;16.50;99.90;;;;;;5052657;28;20016;-67
2022/07/08 07:02:10;;;;;;;;;;;16.70;99.90;;;;;;5035632;28;20403;-67
2022/07/08 07:04:37;;;;;;;;;;;16.70;99.90;;;;;;5036448;28;19925;-68
2022/07/08 07:07:04;;;;;;;;;;;16.70;99.90;;;;;;5035797;28;20400;-67
2022/07/08 07:09:30;;;;;;;;;;;16.80;99.90;;;;;;5036114;28;19933;-67
2022/07/08 07:11:57;;;;;;;;;;;16.80;99.90;;;;;;5037450;28;19925;-67
2022/07/08 07:14:24;;;;;;;;;;;16.90;99.90;;;;;;5032779;28;19925;-67
2022/07/08 07:16:51;;;;;;;;;;;16.80;99.90;;;;;;5016301;28;19933;-68
2022/07/08 07:19:19;;;;;;;;;;;16.90;99.90;;;;;;5032424;28;19929;-67
2022/07/08 07:21:46;;;;;;;;;;;17.00;99.90;;;;;;5032745;28;19972;-67
2022/07/08 07:24:13;;;;;;;;;;;17.10;99.90;;;;;;5032698;28;19929;-67
2022/07/08 07:26:39;;;;;;;;;;;17.30;99.90;;;;;;5032337;28;20393;-67
2022/07/08 07:29:06;;;;;;;;;;;17.50;99.90;;;;;;5032465;28;19925;-67
2022/07/08 07:31:33;;;;;;;;;;;17.70;99.90;;;;;;5032678;28;19929;-67
2022/07/08 07:34:00;;;;;;;;;;;17.80;99.90;;;;;;5032393;28;19945;-67
2022/07/08 07:36:28;;;;;;;;;;;17.90;99.90;;;;;;5032262;28;19929;-67
2022/07/08 07:38:55;;;;;;;;;;;18.00;99.90;;;;;;5032045;28;19925;-66
2022/07/08 07:41:22;;;;;;;;;;;18.10;99.90;;;;;;5032161;28;19932;-66
2022/07/08 07:43:48;;;;;;;;;;;18.10;99.90;;;;;;5032004;28;19925;-66
2022/07/08 07:46:15;;;;;;;;;;;18.10;99.90;;;;;;5032062;28;19971;-66
2022/07/08 07:48:42;;;;;;;;;;;18.20;99.90;;;;;;5032162;28;19952;-67
2022/07/08 07:51:09;;;;;;;;;;;18.20;99.90;;;;;;5031872;28;20400;-67
2022/07/08 07:53:37;;;;;;;;;;;18.00;99.90;;;;;;5031834;28;19925;-67
2022/07/08 07:56:04;;;;;;;;;;;18.00;99.90;;;;;;5031850;28;19925;-67
2022/07/08 07:58:31;;;;;;;;;;;18.10;99.90;;;;;;5082797;22;19975;-69
2022/07/08 08:00:57;;;;;;;;;;;18.20;99.90;;;;;;5051223;28;20392;-69
2022/07/08 08:03:24;;;;;;;;;;;18.10;99.90;;;;;;5051557;28;19960;-68
2022/07/08 08:05:51;;;;;;;;;;;18.10;99.90;;;;;;5051268;28;19967;-68
2022/07/08 08:08:17;;;;;;;;;;;18.10;99.90;;;;;;5053011;28;20411;-68
2022/07/08 08:10:45;;;;;;;;;;;17.90;99.90;;;;;;5052462;28;19925;-68
2022/07/08 08:13:12;;;;;;;;;;;17.90;99.90;;;;;;5051622;28;20036;-69
2022/07/08 08:15:38;;;;;;;;;;;17.90;99.90;;;;;;5051532;28;20289;-69
2022/07/08 08:18:05;;;;;;;;;;;18.00;99.90;;;;;;5051266;28;19971;-68
2022/07/08 08:20:32;;;;;;;;;;;18.10;99.90;;;;;;5051142;28;19925;-68
2022/07/08 08:22:59;;;;;;;;;;;18.10;99.90;;;;;;5051599;28;20481;-68
2022/07/08 08:25:26;;;;;;;;;;;18.00;99.90;;;;;;5051630;28;19947;-69
2022/07/08 08:27:54;;;;;;;;;;;17.60;99.90;;;;;;5052570;28;19929;-69
2022/07/08 08:30:21;;;;;;;;;;;17.60;99.90;;;;;;5051412;28;19975;-69
2022/07/08 08:32:47;;;;;;;;;;;17.70;99.90;;;;;;5050938;28;22299;-68
2022/07/08 08:35:14;;;;;;;;;;;17.90;99.90;;;;;;5051294;28;20382;-68
2022/07/08 08:37:41;;;;;;;;;;;17.80;99.90;;;;;;5052394;28;20407;-69
2022/07/08 08:40:09;;;;;;;;;;;18.00;99.90;;;;;;5051276;28;20015;-68
2022/07/08 08:42:36;;;;;;;;;;;18.30;99.90;;;;;;5051203;28;20000;-71
2022/07/08 08:45:04;;;;;;;;;;;18.50;99.90;;;;;;5052263;28;19964;-69
2022/07/08 08:47:32;;;;;;;;;;;18.60;99.90;;;;;;5050367;28;19924;-69
2022/07/08 08:50:53;;;;;;;;;;;18.70;99.90;;;;;;5050833;28;20366;-68
2022/07/08 08:52:48;;;;;;;;;;;18.70;99.90;;;;;;5050725;28;19924;-69
2022/07/08 08:55:19;;;;;;;;;;;18.70;99.90;;;;;;5051054;28;19929;-68
2022/07/08 08:57:46;;;;;;;;;;;18.80;99.90;;;;;;5050765;28;19925;-69
2022/07/08 09:00:14;;;;;;;;;;;19.00;99.90;;;;;;5050968;28;19937;-68
2022/07/08 09:02:41;;;;;;;;;;;19.00;99.90;;;;;;5050977;28;19925;-70
2022/07/08 09:05:08;;;;;;;;;;;19.10;99.90;;;;;;5050986;28;19924;-69
2022/07/08 09:07:35;;;;;;;;;;;19.20;99.90;;;;;;5050560;28;20358;-68
2022/07/08 09:10:02;;;;;;;;;;;19.10;99.90;;;;;;5050575;28;19924;-69
2022/07/08 09:12:29;;;;;;;;;;;18.90;99.90;;;;;;5050984;28;19954;-68
2022/07/08 09:15:00;;;;;;;;;;;18.80;99.90;;;;;;5050688;28;19979;-68
2022/07/08 09:17:28;;;;;;;;;;;18.80;99.90;;;;;;5050914;28;19974;-69
2022/07/08 09:19:55;;;;;;;;;;;18.80;99.90;;;;;;5050344;28;20350;-69
2022/07/08 09:22:22;;;;;;;;;;;18.80;99.90;;;;;;5050567;28;19924;-68
2022/07/08 09:24:49;;;;;;;;;;;18.70;99.90;;;;;;5050810;28;20023;-69
2022/07/08 09:27:16;;;;;;;;;;;18.80;99.90;;;;;;5050698;28;19929;-68
2022/07/08 09:29:55;;;;;;;;;;;18.90;99.90;;;;;;5050692;28;19925;-68
2022/07/08 09:32:22;;;;;;;;;;;19.00;99.90;;;;;;5050510;28;19925;-68
2022/07/08 09:34:51;;;;;;;;;;;19.00;99.90;;;;;;5050649;28;19983;-69
2022/07/08 09:37:18;;;;;;;;;;;19.10;99.90;;;;;;5050561;28;20354;-68
2022/07/08 09:39:46;;;;;;;;;;;19.10;99.90;;;;;;5050331;28;19925;-71
2022/07/08 09:42:14;;;;;;;;;;;19.10;99.90;;;;;;5050800;28;19952;-69
2022/07/08 09:44:41;;;;;;;;;;;19.30;99.90;;;;;;5050564;28;19964;-68
2022/07/08 09:47:11;;;;;;;;;;;19.40;99.90;;;;;;5050474;28;20514;-69
2022/07/08 09:49:40;;;;;;;;;;;19.50;99.90;;;;;;5050127;28;19956;-69
2022/07/08 09:52:08;;;;;;;;;;;19.40;99.90;;;;;;5050683;28;19929;-69
2022/07/08 09:54:35;;;;;;;;;;;19.40;99.90;;;;;;5050486;28;19925;-68
2022/07/08 09:57:03;;;;;;;;;;;19.40;99.90;;;;;;5050179;28;20842;-68
2022/07/08 09:59:30;;;;;;;;;;;19.40;99.90;;;;;;5051511;28;19929;-68
2022/07/08 10:01:57;;;;;;;;;;;19.50;99.90;;;;;;5054080;28;20353;-68
2022/07/08 10:04:24;;;;;;;;;;;19.30;99.90;;;;;;5053866;28;20474;-68
2022/07/08 10:06:51;;;;;;;;;;;19.30;99.90;;;;;;5053738;28;20024;-68
2022/07/08 10:09:20;;;;;;;;;;;19.40;99.90;;;;;;5053528;28;19925;-68
2022/07/08 10:11:48;;;;;;;;;;;19.80;99.90;;;;;;5053991;28;19932;-69
2022/07/08 10:14:14;;;;;;;;;;;20.10;99.90;;;;;;5053685;28;19936;-68
2022/07/08 10:16:42;;;;;;;;;;;20.10;99.90;;;;;;5053977;28;19925;-70
2022/07/08 10:19:11;;;;;;;;;;;20.10;99.90;;;;;;5053631;28;19928;-68
2022/07/08 10:21:38;;;;;;;;;;;20.10;99.90;;;;;;5053864;28;19982;-69
2022/07/08 10:24:06;;;;;;;;;;;20.00;99.90;;;;;;5053542;28;19929;-68
2022/07/08 10:26:36;;;;;;;;;;;20.20;99.90;;;;;;5053524;28;19925;-68
2022/07/08 10:29:04;;;;;;;;;;;20.30;99.90;;;;;;5053326;28;19937;-69
2022/07/08 10:31:41;;;;;;;;;;;20.50;99.90;;;;;;5053848;28;19932;-68
2022/07/08 10:34:08;;;;;;;;;;;20.50;99.90;;;;;;5053398;28;19932;-69
2022/07/08 10:36:42;;;;;;;;;;;20.70;99.90;;;;;;5053524;28;20056;-69
2022/07/08 10:39:11;;;;;;;;;;;20.70;99.90;;;;;;5052958;28;19924;-69
2022/07/08 10:41:40;;;;;;;;;;;21.10;99.90;;;;;;5053590;28;19925;-68
2022/07/08 10:44:08;;;;;;;;;;;21.10;99.90;;;;;;5053335;28;20304;-71
2022/07/08 10:46:34;;;;;;;;;;;21.20;99.90;;;;;;5053302;28;19925;-69
2022/07/08 10:49:02;;;;;;;;;;;21.30;99.90;;;;;;5052866;28;20281;-68
2022/07/08 10:51:50;;;;;;;;;;;21.40;99.90;;;;;;5053186;28;19932;-69
2022/07/08 10:54:38;;;;;;;;;;;21.60;99.90;;;;;;5052841;28;20351;-69
2022/07/08 10:57:14;;;;;;;;;;;22.00;99.90;;;;;;5052828;28;19931;-69
2022/07/08 10:59:41;;;;;;;;;;;22.40;99.90;;;;;;5053063;28;19925;-69
2022/07/08 11:02:09;;;;;;;;;;;22.70;99.90;;;;;;5052788;28;19924;-69
2022/07/08 11:04:43;;;;;;;;;;;22.90;99.90;;;;;;5052764;28;19925;-69
2022/07/08 11:07:25;;;;;;;;;;;23.10;99.90;;;;;;5052706;28;20354;-69
2022/07/08 11:09:52;;;;;;;;;;;23.20;99.90;;;;;;5051995;28;20471;-69
2022/07/08 11:12:21;;;;;;;;;;;22.80;99.90;;;;;;5053008;28;19982;-70
2022/07/08 11:14:49;;;;;;;;;;;22.60;99.90;;;;;;5052613;28;19924;-69
2022/07/08 11:17:16;;;;;;;;;;;23.00;99.90;;;;;;5052994;28;19928;-68
2022/07/08 11:19:43;;;;;;;;;;;23.20;99.90;;;;;;5052290;28;19924;-70
2022/07/08 11:22:10;;;;;;;;;;;23.50;99.90;;;;;;5052707;28;19929;-69
2022/07/08 11:24:37;;;;;;;;;;;23.90;99.90;;;;;;5052402;28;19924;-69
2022/07/08 11:27:04;;;;;;;;;;;24.00;99.90;;;;;;5052683;28;20384;-69
2022/07/08 11:29:32;;;;;;;;;;;24.00;99.90;;;;;;5052013;28;19924;-69
2022/07/08 11:32:00;;;;;;;;;;;24.10;99.90;;;;;;5052385;28;19925;-69
2022/07/08 11:34:26;;;;;;;;;;;23.90;99.90;;;;;;5052164;28;19928;-68
2022/07/08 11:36:54;;;;;;;;;;;24.10;99.90;;;;;;5052447;28;20392;-69
2022/07/08 11:39:21;;;;;;;;;;;24.80;99.90;;;;;;5051718;28;20358;-69
2022/07/08 11:41:48;;;;;;;;;;;25.40;99.90;;;;;;5052394;28;19925;-69
2022/07/08 11:44:18;;;;;;;;;;;25.70;99.90;;;;;;5052153;28;20376;-69
2022/07/08 11:46:47;;;;;;;;;;;25.60;99.90;;;;;;5052030;28;19932;-69
2022/07/08 11:49:14;;;;;;;;;;;25.60;99.90;;;;;;5051687;28;19924;-68
2022/07/08 11:51:44;;;;;;;;;;;25.50;99.90;;;;;;5052073;28;19951;-69
2022/07/08 11:54:11;;;;;;;;;;;24.90;99.90;;;;;;5052085;28;19947;-69
2022/07/08 11:56:38;;;;;;;;;;;25.80;99.90;;;;;;5052024;28;19925;-69
2022/07/08 11:59:04;;;;;;;;;;;27.60;99.90;;;;;;5051419;28;20355;-69
2022/07/08 12:01:33;;;;;;;;;;;29.10;99.90;;;;;;5051689;28;19928;-69
2022/07/08 12:04:04;;;;;;;;;;;29.50;99.90;;;;;;5051531;28;19962;-68
2022/07/08 12:06:31;;;;;;;;;;;30.70;99.90;;;;;;5051542;28;19990;-69
2022/07/08 12:08:58;;;;;;;;;;;31.50;99.90;;;;;;5051455;28;19925;-69
2022/07/08 12:11:25;;;;;;;;;;;30.70;99.90;;;;;;5051694;28;19931;-69
2022/07/08 12:13:53;;;;;;;;;;;30.90;99.90;;;;;;5051494;28;20019;-70
2022/07/08 12:16:27;;;;;;;;;;;31.80;99.90;;;;;;5051425;28;19928;-69
2022/07/08 12:18:54;;;;;;;;;;;33.00;99.90;;;;;;5051440;28;19925;-69
2022/07/08 12:21:22;;;;;;;;;;;32.30;99.90;;;;;;5051120;28;19978;-70
2022/07/08 12:23:56;;;;;;;;;;;31.00;99.90;;;;;;5051025;28;20346;-70
2022/07/08 12:26:22;;;;;;;;;;;29.60;99.90;;;;;;5051360;28;19925;-70
2022/07/08 12:28:49;;;;;;;;;;;28.60;99.90;;;;;;5050761;28;19932;-70
2022/07/08 12:31:31;;;;;;;;;;;29.00;99.90;;;;;;5051642;28;19933;-69
2022/07/08 12:34:00;;;;;;;;;;;29.70;99.90;;;;;;5051224;28;19970;-70
2022/07/08 12:36:29;;;;;;;;;;;30.40;99.90;;;;;;5051471;28;19964;-71
2022/07/08 12:38:56;;;;;;;;;;;30.60;99.90;;;;;;5050970;28;19947;-70
2022/07/08 12:41:22;;;;;;;;;;;29.60;99.90;;;;;;5051217;28;19980;-69
2022/07/08 12:43:49;;;;;;;;;;;29.50;99.90;;;;;;5051238;28;19924;-69
2022/07/08 12:46:16;;;;;;;;;;;29.80;99.90;;;;;;5051223;28;19990;-70
2022/07/08 12:48:43;;;;;;;;;;;30.80;99.90;;;;;;5050898;28;19931;-68
2022/07/08 12:51:10;;;;;;;;;;;30.10;99.90;;;;;;5051187;28;19925;-71
2022/07/08 12:53:38;;;;;;;;;;;31.00;99.90;;;;;;5050804;28;19929;-70
2022/07/08 12:56:05;;;;;;;;;;;31.70;99.90;;;;;;5050815;28;19924;-70
2022/07/08 12:58:32;;;;;;;;;;;31.80;99.90;;;;;;5050742;28;19925;-70
2022/07/08 13:00:59;;;;;;;;;;;32.90;99.90;;;;;;5050811;28;19979;-70
2022/07/08 13:03:26;;;;;;;;;;;34.00;99.90;;;;;;5050730;28;19925;-68
2022/07/08 13:05:52;;;;;;;;;;;33.90;99.90;;;;;;5050579;28;20334;-69
2022/07/08 13:08:19;;;;;;;;;;;33.90;99.90;;;;;;5051011;28;19925;-71
2022/07/08 13:10:47;;;;;;;;;;;34.00;99.90;;;;;;5050868;28;19925;-68
2022/07/08 13:13:14;;;;;;;;;;;34.40;99.90;;;;;;5050806;28;19924;-69
2022/07/08 13:15:41;;;;;;;;;;;34.50;99.90;;;;;;5050715;28;19936;-68
2022/07/08 13:18:08;;;;;;;;;;;33.30;99.90;;;;;;5050748;28;19928;-68
2022/07/08 13:20:34;;;;;;;;;;;32.40;99.90;;;;;;5050834;28;19932;-69
2022/07/08 13:23:01;;;;;;;;;;;32.70;99.90;;;;;;5051020;28;19928;-69
2022/07/08 13:25:28;;;;;;;;;;;32.70;99.90;;;;;;5050881;28;19963;-70
2022/07/08 13:27:56;;;;;;;;;;;33.10;99.90;;;;;;5050579;28;19933;-69
2022/07/08 13:30:23;;;;;;;;;;;33.90;99.90;;;;;;5050584;28;19929;-69
2022/07/08 13:32:50;;;;;;;;;;;35.10;99.90;;;;;;5051035;28;19924;-68
2022/07/08 13:35:16;;;;;;;;;;;34.50;99.90;;;;;;5054308;28;19929;-72
2022/07/08 13:37:43;;;;;;;;;;;35.10;99.90;;;;;;5054587;28;19978;-69
2022/07/08 13:40:10;;;;;;;;;;;35.00;99.90;;;;;;5054106;28;20324;-69
2022/07/08 13:42:37;;;;;;;;;;;33.50;99.90;;;;;;5054391;28;20358;-69
2022/07/08 13:45:06;;;;;;;;;;;33.50;99.90;;;;;;5054433;28;19929;-68
2022/07/08 13:47:33;;;;;;;;;;;34.70;99.90;;;;;;5054273;28;19975;-69
2022/07/08 13:50:00;;;;;;;;;;;34.60;99.90;;;;;;5054224;28;19925;-69
2022/07/08 13:52:27;;;;;;;;;;;35.60;99.90;;;;;;5054493;28;20388;-69
2022/07/08 13:54:54;;;;;;;;;;;35.60;99.90;;;;;;5053962;28;20406;-69
2022/07/08 13:57:20;;;;;;;;;;;35.70;99.90;;;;;;5077931;22;19948;-68
2022/07/08 13:59:47;;;;;;;;;;;34.30;99.90;;;;;;5016921;28;19925;-69
2022/07/08 14:02:17;;;;;;;;;;;33.80;99.90;;;;;;5017855;28;19928;-70
2022/07/08 14:04:43;;;;;;;;;;;33.90;99.90;;;;;;5035154;28;20025;-69
2022/07/08 14:07:10;;;;;;;;;;;34.40;99.90;;;;;;5017239;28;19925;-70
2022/07/08 14:09:37;;;;;;;;;;;34.30;99.90;;;;;;5017245;28;19929;-68
2022/07/08 14:12:05;;;;;;;;;;;34.20;99.90;;;;;;5017297;28;19933;-69
2022/07/08 14:14:32;;;;;;;;;;;34.00;99.90;;;;;;5033606;28;20016;-69
2022/07/08 14:16:59;;;;;;;;;;;33.40;99.90;;;;;;5033842;28;20286;-70
2022/07/08 14:19:27;;;;;;;;;;;32.60;99.90;;;;;;5016904;28;19929;-69
2022/07/08 14:21:55;;;;;;;;;;;32.30;99.90;;;;;;5033965;28;20388;-69